sensor_id;sensor_type;location;lat;lon;timestamp;temperature;humidity
41447;DHT22;27185;52.040;4.490;2024-01-10T00:00:45;-1.80;99.90
41447;DHT22;27185;52.040;4.490;2024-01-10T00:03:31;-1.80;99.90
41447;DHT22;27185;52.040;4.490;2024-01-10T00:06:16;-1.80;99.90
41447;DHT22;27185;52.040;4.490;2024-01-10T00:09:02;-1.80;99.90
41447;DHT22;27185;52.040;4.490;2024-01-10T00:11:48;-1.90;99.90
41447;DHT22;27185;52.040;4.490;2024-01-10T00:14:33;-1.80;99.90
41447;DHT22;27185;52.040;4.490;2024-01-10T00:17:19;-1.90;99.90
41447;DHT22;27185;52.040;4.490;2024-01-10T00:20:05;-1.80;99.90
41447;DHT22;27185;52.040;4.490;2024-01-10T00:22:51;-1.80;99.90
41447;DHT22;27185;52.040;4.490;2024-01-10T00:25:37;-1.80;99.90
41447;DHT22;27185;52.040;4.490;2024-01-10T00:28:26;-1.90;99.90
41447;DHT22;27185;52.040;4.490;2024-01-10T00:31:12;-1.90;99.90
41447;DHT22;27185;52.040;4.490;2024-01-10T00:33:58;-1.90;99.90
41447;DHT22;27185;52.040;4.490;2024-01-10T00:36:43;-2.00;99.90
41447;DHT22;27185;52.040;4.490;2024-01-10T00:39:29;-2.00;99.90
41447;DHT22;27185;52.040;4.490;2024-01-10T00:42:15;-2.00;99.90
41447;DHT22;27185;52.040;4.490;2024-01-10T00:45:00;-2.00;99.90
41447;DHT22;27185;52.040;4.490;2024-01-10T00:47:48;-2.00;99.90
41447;DHT22;27185;52.040;4.490;2024-01-10T00:50:34;-2.00;99.90
41447;DHT22;27185;52.040;4.490;2024-01-10T00:53:20;-1.90;99.90
41447;DHT22;27185;52.040;4.490;2024-01-10T00:56:06;-2.00;99.90
41447;DHT22;27185;52.040;4.490;2024-01-10T00:58:52;-2.00;99.90
41447;DHT22;27185;52.040;4.490;2024-01-10T01:01:43;-2.00;99.90
41447;DHT22;27185;52.040;4.490;2024-01-10T01:04:31;-2.00;99.90
41447;DHT22;27185;52.040;4.490;2024-01-10T01:07:17;-2.00;99.90
41447;DHT22;27185;52.040;4.490;2024-01-10T01:10:02;-2.00;99.90
41447;DHT22;27185;52.040;4.490;2024-01-10T01:12:48;-2.00;99.90
41447;DHT22;27185;52.040;4.490;2024-01-10T01:15:34;-2.10;99.90
41447;DHT22;27185;52.040;4.490;2024-01-10T01:18:19;-2.10;99.90
41447;DHT22;27185;52.040;4.490;2024-01-10T01:21:05;-2.10;99.90
41447;DHT22;27185;52.040;4.490;2024-01-10T01:23:51;-2.10;99.90
41447;DHT22;27185;52.040;4.490;2024-01-10T01:26:36;-2.20;99.90
41447;DHT22;27185;52.040;4.490;2024-01-10T01:29:22;-2.20;99.90
41447;DHT22;27185;52.040;4.490;2024-01-10T01:32:08;-2.20;99.90
41447;DHT22;27185;52.040;4.490;2024-01-10T01:34:53;-2.20;99.90
41447;DHT22;27185;52.040;4.490;2024-01-10T01:37:39;-2.20;99.90
41447;DHT22;27185;52.040;4.490;2024-01-10T01:40:28;-2.20;99.90
41447;DHT22;27185;52.040;4.490;2024-01-10T01:43:24;-2.20;99.90
41447;DHT22;27185;52.040;4.490;2024-01-10T01:46:10;-2.20;99.90
41447;DHT22;27185;52.040;4.490;2024-01-10T01:48:56;-2.20;99.90
41447;DHT22;27185;52.040;4.490;2024-01-10T01:51:42;-2.20;99.90
41447;DHT22;27185;52.040;4.490;2024-01-10T01:54:27;-2.20;99.90
41447;DHT22;27185;52.040;4.490;2024-01-10T01:57:14;-2.20;99.90
41447;DHT22;27185;52.040;4.490;2024-01-10T01:59:59;-2.20;99.90
41447;DHT22;27185;52.040;4.490;2024-01-10T02:02:45;-2.20;99.90
41447;DHT22;27185;52.040;4.490;2024-01-10T02:05:33;-2.20;99.90
41447;DHT22;27185;52.040;4.490;2024-01-10T02:08:22;-2.10;99.90
41447;DHT22;27185;52.040;4.490;2024-01-10T02:11:08;-2.10;99.90
41447;DHT22;27185;52.040;4.490;2024-01-10T02:13:53;-2.10;99.90
41447;DHT22;27185;52.040;4.490;2024-01-10T02:16:39;-2.10;99.90
41447;DHT22;27185;52.040;4.490;2024-01-10T02:19:25;-2.10;99.90
41447;DHT22;27185;52.040;4.490;2024-01-10T02:22:12;-2.10;99.90
41447;DHT22;27185;52.040;4.490;2024-01-10T02:24:58;-2.10;99.90
41447;DHT22;27185;52.040;4.490;2024-01-10T02:27:43;-2.10;99.90
41447;DHT22;27185;52.040;4.490;2024-01-10T02:30:29;-2.10;99.90
41447;DHT22;27185;52.040;4.490;2024-01-10T02:33:14;-2.20;99.90
41447;DHT22;27185;52.040;4.490;2024-01-10T02:36:00;-2.20;99.90
41447;DHT22;27185;52.040;4.490;2024-01-10T02:38:46;-2.20;99.90
41447;DHT22;27185;52.040;4.490;2024-01-10T02:41:32;-2.20;99.90
41447;DHT22;27185;52.040;4.490;2024-01-10T02:44:18;-2.20;99.90
41447;DHT22;27185;52.040;4.490;2024-01-10T02:47:06;-2.30;99.90
41447;DHT22;27185;52.040;4.490;2024-01-10T02:49:52;-2.30;99.90
41447;DHT22;27185;52.040;4.490;2024-01-10T02:52:37;-2.30;99.90
41447;DHT22;27185;52.040;4.490;2024-01-10T02:55:23;-2.30;99.90
41447;DHT22;27185;52.040;4.490;2024-01-10T02:58:08;-2.30;99.90
41447;DHT22;27185;52.040;4.490;2024-01-10T03:00:54;-2.40;99.90
41447;DHT22;27185;52.040;4.490;2024-01-10T03:03:40;-2.40;99.90
41447;DHT22;27185;52.040;4.490;2024-01-10T03:06:25;-2.40;99.90
41447;DHT22;27185;52.040;4.490;2024-01-10T03:09:11;-2.40;99.90
41447;DHT22;27185;52.040;4.490;2024-01-10T03:11:56;-2.40;99.90
41447;DHT22;27185;52.040;4.490;2024-01-10T03:14:42;-2.40;99.90
41447;DHT22;27185;52.040;4.490;2024-01-10T03:17:27;-2.40;99.90
41447;DHT22;27185;52.040;4.490;2024-01-10T03:20:13;-2.50;99.90
41447;DHT22;27185;52.040;4.490;2024-01-10T03:22:59;-2.50;99.90
41447;DHT22;27185;52.040;4.490;2024-01-10T03:25:44;-2.50;99.90
41447;DHT22;27185;52.040;4.490;2024-01-10T03:28:30;-2.50;99.90
41447;DHT22;27185;52.040;4.490;2024-01-10T03:31:16;-2.50;99.90
41447;DHT22;27185;52.040;4.490;2024-01-10T03:34:03;-2.50;99.90
41447;DHT22;27185;52.040;4.490;2024-01-10T03:36:49;-2.50;99.90
41447;DHT22;27185;52.040;4.490;2024-01-10T03:39:34;-2.50;99.90
41447;DHT22;27185;52.040;4.490;2024-01-10T03:42:20;-2.50;99.90
41447;DHT22;27185;52.040;4.490;2024-01-10T03:45:06;-2.60;99.90
41447;DHT22;27185;52.040;4.490;2024-01-10T03:47:51;-2.60;99.90
41447;DHT22;27185;52.040;4.490;2024-01-10T03:50:37;-2.60;99.90
41447;DHT22;27185;52.040;4.490;2024-01-10T03:53:26;-2.60;99.90
41447;DHT22;27185;52.040;4.490;2024-01-10T03:56:12;-2.60;99.90
41447;DHT22;27185;52.040;4.490;2024-01-10T03:58:58;-2.60;99.90
41447;DHT22;27185;52.040;4.490;2024-01-10T04:01:44;-2.60;99.90
41447;DHT22;27185;52.040;4.490;2024-01-10T04:04:30;-2.60;99.90
41447;DHT22;27185;52.040;4.490;2024-01-10T04:07:15;-2.60;99.90
41447;DHT22;27185;52.040;4.490;2024-01-10T04:10:01;-2.60;99.90
41447;DHT22;27185;52.040;4.490;2024-01-10T04:12:47;-2.60;99.90
41447;DHT22;27185;52.040;4.490;2024-01-10T04:15:33;-2.60;99.90
41447;DHT22;27185;52.040;4.490;2024-01-10T04:18:20;-2.60;99.90
41447;DHT22;27185;52.040;4.490;2024-01-10T04:21:06;-2.60;99.90
41447;DHT22;27185;52.040;4.490;2024-01-10T04:23:52;-2.60;99.90
41447;DHT22;27185;52.040;4.490;2024-01-10T04:26:38;-2.60;99.90
41447;DHT22;27185;52.040;4.490;2024-01-10T04:29:23;-2.60;99.90
41447;DHT22;27185;52.040;4.490;2024-01-10T04:32:09;-2.60;99.90
41447;DHT22;27185;52.040;4.490;2024-01-10T04:34:55;-2.60;99.90
41447;DHT22;27185;52.040;4.490;2024-01-10T04:37:40;-2.50;99.90
41447;DHT22;27185;52.040;4.490;2024-01-10T04:40:26;-2.50;99.90
41447;DHT22;27185;52.040;4.490;2024-01-10T04:43:12;-2.50;99.90
41447;DHT22;27185;52.040;4.490;2024-01-10T04:45:57;-2.50;99.90
41447;DHT22;27185;52.040;4.490;2024-01-10T04:48:43;-2.50;99.90
41447;DHT22;27185;52.040;4.490;2024-01-10T04:51:28;-2.50;99.90
41447;DHT22;27185;52.040;4.490;2024-01-10T04:54:14;-2.50;99.90
41447;DHT22;27185;52.040;4.490;2024-01-10T04:57:00;-2.50;99.90
41447;DHT22;27185;52.040;4.490;2024-01-10T04:59:45;-2.50;99.90
41447;DHT22;27185;52.040;4.490;2024-01-10T05:02:31;-2.50;99.90
41447;DHT22;27185;52.040;4.490;2024-01-10T05:05:17;-2.60;99.90
41447;DHT22;27185;52.040;4.490;2024-01-10T05:08:08;-2.60;99.90
41447;DHT22;27185;52.040;4.490;2024-01-10T05:10:54;-2.60;99.90
41447;DHT22;27185;52.040;4.490;2024-01-10T05:13:40;-2.60;99.90
41447;DHT22;27185;52.040;4.490;2024-01-10T05:16:25;-2.60;99.90
41447;DHT22;27185;52.040;4.490;2024-01-10T05:19:11;-2.60;99.90
41447;DHT22;27185;52.040;4.490;2024-01-10T05:21:56;-2.60;99.90
41447;DHT22;27185;52.040;4.490;2024-01-10T05:24:42;-2.60;99.90
41447;DHT22;27185;52.040;4.490;2024-01-10T05:27:28;-2.70;99.90
41447;DHT22;27185;52.040;4.490;2024-01-10T05:30:14;-2.70;99.90
41447;DHT22;27185;52.040;4.490;2024-01-10T05:32:59;-2.70;99.90
41447;DHT22;27185;52.040;4.490;2024-01-10T05:35:45;-2.70;99.90
41447;DHT22;27185;52.040;4.490;2024-01-10T05:38:31;-2.70;99.90
41447;DHT22;27185;52.040;4.490;2024-01-10T05:41:17;-2.70;99.90
41447;DHT22;27185;52.040;4.490;2024-01-10T05:44:03;-2.70;99.90
41447;DHT22;27185;52.040;4.490;2024-01-10T05:46:50;-2.70;99.90
41447;DHT22;27185;52.040;4.490;2024-01-10T05:49:35;-2.70;99.90
41447;DHT22;27185;52.040;4.490;2024-01-10T05:52:21;-2.70;99.90
41447;DHT22;27185;52.040;4.490;2024-01-10T05:55:07;-2.70;99.90
41447;DHT22;27185;52.040;4.490;2024-01-10T05:57:54;-2.60;99.90
41447;DHT22;27185;52.040;4.490;2024-01-10T06:00:39;-2.60;99.90
41447;DHT22;27185;52.040;4.490;2024-01-10T06:03:25;-2.60;99.90
41447;DHT22;27185;52.040;4.490;2024-01-10T06:06:10;-2.70;99.90
41447;DHT22;27185;52.040;4.490;2024-01-10T06:08:56;-2.70;99.90
41447;DHT22;27185;52.040;4.490;2024-01-10T06:11:42;-2.60;99.90
41447;DHT22;27185;52.040;4.490;2024-01-10T06:14:27;-2.70;99.90
41447;DHT22;27185;52.040;4.490;2024-01-10T06:17:13;-2.70;99.90
41447;DHT22;27185;52.040;4.490;2024-01-10T06:19:59;-2.70;99.90
41447;DHT22;27185;52.040;4.490;2024-01-10T06:22:45;-2.70;99.90
41447;DHT22;27185;52.040;4.490;2024-01-10T06:25:32;-2.70;99.90
41447;DHT22;27185;52.040;4.490;2024-01-10T06:28:17;-2.70;99.90
41447;DHT22;27185;52.040;4.490;2024-01-10T06:31:03;-2.70;99.90
41447;DHT22;27185;52.040;4.490;2024-01-10T06:33:49;-2.70;99.90
41447;DHT22;27185;52.040;4.490;2024-01-10T06:36:35;-2.80;99.90
41447;DHT22;27185;52.040;4.490;2024-01-10T06:39:21;-2.80;99.90
41447;DHT22;27185;52.040;4.490;2024-01-10T06:42:06;-2.80;99.90
41447;DHT22;27185;52.040;4.490;2024-01-10T06:44:53;-2.80;99.90
41447;DHT22;27185;52.040;4.490;2024-01-10T06:47:39;-2.80;99.90
41447;DHT22;27185;52.040;4.490;2024-01-10T06:50:25;-2.80;99.90
41447;DHT22;27185;52.040;4.490;2024-01-10T06:53:11;-2.90;99.90
41447;DHT22;27185;52.040;4.490;2024-01-10T06:55:56;-2.90;99.90
41447;DHT22;27185;52.040;4.490;2024-01-10T06:58:42;-2.90;99.90
41447;DHT22;27185;52.040;4.490;2024-01-10T07:01:29;-2.80;99.90
41447;DHT22;27185;52.040;4.490;2024-01-10T07:04:15;-2.80;99.90
41447;DHT22;27185;52.040;4.490;2024-01-10T07:07:03;-2.80;99.90
41447;DHT22;27185;52.040;4.490;2024-01-10T07:09:49;-2.80;99.90
41447;DHT22;27185;52.040;4.490;2024-01-10T07:12:35;-2.80;99.90
41447;DHT22;27185;52.040;4.490;2024-01-10T07:15:20;-2.80;99.90
41447;DHT22;27185;52.040;4.490;2024-01-10T07:18:06;-2.80;99.90
41447;DHT22;27185;52.040;4.490;2024-01-10T07:20:52;-2.80;99.90
41447;DHT22;27185;52.040;4.490;2024-01-10T07:23:38;-2.90;99.90
41447;DHT22;27185;52.040;4.490;2024-01-10T07:26:26;-2.90;99.90
41447;DHT22;27185;52.040;4.490;2024-01-10T07:29:13;-3.00;99.90
41447;DHT22;27185;52.040;4.490;2024-01-10T07:31:58;-3.00;99.90
41447;DHT22;27185;52.040;4.490;2024-01-10T07:34:44;-3.00;99.90
41447;DHT22;27185;52.040;4.490;2024-01-10T07:37:30;-3.00;99.90
41447;DHT22;27185;52.040;4.490;2024-01-10T07:40:17;-3.00;99.90
41447;DHT22;27185;52.040;4.490;2024-01-10T07:43:03;-3.10;99.90
41447;DHT22;27185;52.040;4.490;2024-01-10T07:45:48;-3.10;99.90
41447;DHT22;27185;52.040;4.490;2024-01-10T07:48:34;-3.10;99.90
41447;DHT22;27185;52.040;4.490;2024-01-10T07:51:21;-3.20;99.90
41447;DHT22;27185;52.040;4.490;2024-01-10T07:54:10;-3.10;99.90
41447;DHT22;27185;52.040;4.490;2024-01-10T07:56:55;-3.10;99.90
41447;DHT22;27185;52.040;4.490;2024-01-10T07:59:41;-3.10;99.90
41447;DHT22;27185;52.040;4.490;2024-01-10T08:02:27;-3.10;99.90
41447;DHT22;27185;52.040;4.490;2024-01-10T08:05:12;-3.20;99.90
41447;DHT22;27185;52.040;4.490;2024-01-10T08:07:58;-3.20;99.90
41447;DHT22;27185;52.040;4.490;2024-01-10T08:10:44;-3.20;99.90
41447;DHT22;27185;52.040;4.490;2024-01-10T08:13:29;-3.20;99.90
41447;DHT22;27185;52.040;4.490;2024-01-10T08:16:15;-3.20;99.90
41447;DHT22;27185;52.040;4.490;2024-01-10T08:19:02;-3.20;99.90
41447;DHT22;27185;52.040;4.490;2024-01-10T08:21:49;-3.20;99.90
41447;DHT22;27185;52.040;4.490;2024-01-10T08:24:35;-3.20;99.90
41447;DHT22;27185;52.040;4.490;2024-01-10T08:27:21;-3.10;99.90
41447;DHT22;27185;52.040;4.490;2024-01-10T08:30:07;-3.10;99.90
41447;DHT22;27185;52.040;4.490;2024-01-10T08:32:55;-3.10;99.90
41447;DHT22;27185;52.040;4.490;2024-01-10T08:35:40;-3.10;99.90
41447;DHT22;27185;52.040;4.490;2024-01-10T08:38:28;-3.00;99.90
41447;DHT22;27185;52.040;4.490;2024-01-10T08:41:14;-3.00;99.90
41447;DHT22;27185;52.040;4.490;2024-01-10T08:43:59;-3.00;99.90
41447;DHT22;27185;52.040;4.490;2024-01-10T08:46:46;-2.90;99.90
41447;DHT22;27185;52.040;4.490;2024-01-10T08:49:32;-2.80;99.90
41447;DHT22;27185;52.040;4.490;2024-01-10T08:52:18;-2.80;99.90
41447;DHT22;27185;52.040;4.490;2024-01-10T08:55:08;-2.80;99.90
41447;DHT22;27185;52.040;4.490;2024-01-10T08:57:53;-2.70;99.90
41447;DHT22;27185;52.040;4.490;2024-01-10T09:00:39;-2.70;99.90
41447;DHT22;27185;52.040;4.490;2024-01-10T09:03:24;-2.60;99.90
41447;DHT22;27185;52.040;4.490;2024-01-10T09:06:10;-2.60;99.90
41447;DHT22;27185;52.040;4.490;2024-01-10T09:08:56;-2.50;99.90
41447;DHT22;27185;52.040;4.490;2024-01-10T09:11:41;-2.40;99.90
41447;DHT22;27185;52.040;4.490;2024-01-10T09:14:27;-2.30;99.90
41447;DHT22;27185;52.040;4.490;2024-01-10T09:17:15;-2.30;99.90
41447;DHT22;27185;52.040;4.490;2024-01-10T09:20:01;-2.10;99.90
41447;DHT22;27185;52.040;4.490;2024-01-10T09:22:48;-2.10;99.90
41447;DHT22;27185;52.040;4.490;2024-01-10T09:25:34;-2.00;99.90
41447;DHT22;27185;52.040;4.490;2024-01-10T09:28:20;-1.90;99.90
41447;DHT22;27185;52.040;4.490;2024-01-10T09:31:05;-1.90;99.90
41447;DHT22;27185;52.040;4.490;2024-01-10T09:33:52;-1.80;99.90
41447;DHT22;27185;52.040;4.490;2024-01-10T09:36:38;-1.70;99.90
41447;DHT22;27185;52.040;4.490;2024-01-10T09:39:24;-1.60;99.90
41447;DHT22;27185;52.040;4.490;2024-01-10T09:42:10;-1.60;99.90
41447;DHT22;27185;52.040;4.490;2024-01-10T09:44:55;-1.60;99.90
41447;DHT22;27185;52.040;4.490;2024-01-10T09:47:43;-1.50;99.90
41447;DHT22;27185;52.040;4.490;2024-01-10T09:50:30;-1.40;99.90
41447;DHT22;27185;52.040;4.490;2024-01-10T09:53:22;-1.40;99.90
41447;DHT22;27185;52.040;4.490;2024-01-10T09:56:09;-1.30;99.90
41447;DHT22;27185;52.040;4.490;2024-01-10T09:58:55;-1.30;99.90
41447;DHT22;27185;52.040;4.490;2024-01-10T10:01:46;-1.20;99.90
41447;DHT22;27185;52.040;4.490;2024-01-10T10:04:31;-1.10;99.90
41447;DHT22;27185;52.040;4.490;2024-01-10T10:07:17;-1.00;99.90
41447;DHT22;27185;52.040;4.490;2024-01-10T10:10:03;-1.00;99.90
41447;DHT22;27185;52.040;4.490;2024-01-10T10:12:50;-0.90;99.90
41447;DHT22;27185;52.040;4.490;2024-01-10T10:15:38;-0.80;99.90
41447;DHT22;27185;52.040;4.490;2024-01-10T10:18:24;-0.80;99.90
41447;DHT22;27185;52.040;4.490;2024-01-10T10:21:11;-0.70;99.90
41447;DHT22;27185;52.040;4.490;2024-01-10T10:23:59;-0.60;99.90
41447;DHT22;27185;52.040;4.490;2024-01-10T10:26:45;-0.60;99.90
41447;DHT22;27185;52.040;4.490;2024-01-10T10:29:31;-0.50;99.90
41447;DHT22;27185;52.040;4.490;2024-01-10T10:32:17;-0.50;99.90
41447;DHT22;27185;52.040;4.490;2024-01-10T10:35:04;-0.40;99.90
41447;DHT22;27185;52.040;4.490;2024-01-10T10:37:52;-0.30;99.90
41447;DHT22;27185;52.040;4.490;2024-01-10T10:40:39;-0.20;99.90
41447;DHT22;27185;52.040;4.490;2024-01-10T10:43:25;-0.20;99.90
41447;DHT22;27185;52.040;4.490;2024-01-10T10:46:14;-0.10;99.90
41447;DHT22;27185;52.040;4.490;2024-01-10T10:49:06;0.00;99.90
41447;DHT22;27185;52.040;4.490;2024-01-10T10:51:58;0.10;99.90
41447;DHT22;27185;52.040;4.490;2024-01-10T10:54:46;0.10;99.90
41447;DHT22;27185;52.040;4.490;2024-01-10T10:57:32;0.20;99.90
41447;DHT22;27185;52.040;4.490;2024-01-10T11:00:22;0.20;99.90
41447;DHT22;27185;52.040;4.490;2024-01-10T11:03:12;0.30;99.90
41447;DHT22;27185;52.040;4.490;2024-01-10T11:05:58;0.30;99.90
41447;DHT22;27185;52.040;4.490;2024-01-10T11:09:05;0.40;99.90
41447;DHT22;27185;52.040;4.490;2024-01-10T11:15:59;0.60;99.90
41447;DHT22;27185;52.040;4.490;2024-01-10T11:24:47;0.70;99.90
41447;DHT22;27185;52.040;4.490;2024-01-10T11:27:33;0.70;99.90
41447;DHT22;27185;52.040;4.490;2024-01-10T11:30:49;0.80;99.90
41447;DHT22;27185;52.040;4.490;2024-01-10T11:33:36;0.80;99.90
41447;DHT22;27185;52.040;4.490;2024-01-10T11:36:25;0.80;99.90
41447;DHT22;27185;52.040;4.490;2024-01-10T11:39:12;0.90;99.90
41447;DHT22;27185;52.040;4.490;2024-01-10T11:41:59;1.00;99.90
41447;DHT22;27185;52.040;4.490;2024-01-10T11:44:49;1.00;99.90
41447;DHT22;27185;52.040;4.490;2024-01-10T11:47:41;1.00;99.90
41447;DHT22;27185;52.040;4.490;2024-01-10T11:50:29;1.10;99.90
41447;DHT22;27185;52.040;4.490;2024-01-10T11:53:40;1.20;99.90
41447;DHT22;27185;52.040;4.490;2024-01-10T11:56:41;1.20;99.90
41447;DHT22;27185;52.040;4.490;2024-01-10T11:59:27;1.20;99.90
41447;DHT22;27185;52.040;4.490;2024-01-10T12:02:17;1.30;99.90
41447;DHT22;27185;52.040;4.490;2024-01-10T12:05:03;1.30;99.90
41447;DHT22;27185;52.040;4.490;2024-01-10T12:07:50;1.30;99.90
41447;DHT22;27185;52.040;4.490;2024-01-10T12:10:37;1.40;99.90
41447;DHT22;27185;52.040;4.490;2024-01-10T12:13:40;1.40;99.90
41447;DHT22;27185;52.040;4.490;2024-01-10T12:16:26;1.50;99.90
41447;DHT22;27185;52.040;4.490;2024-01-10T12:19:12;1.50;99.90
41447;DHT22;27185;52.040;4.490;2024-01-10T12:21:57;1.60;99.90
41447;DHT22;27185;52.040;4.490;2024-01-10T12:24:44;1.60;99.90
41447;DHT22;27185;52.040;4.490;2024-01-10T12:27:33;1.70;99.90
41447;DHT22;27185;52.040;4.490;2024-01-10T12:30:19;1.70;99.90
41447;DHT22;27185;52.040;4.490;2024-01-10T12:33:05;1.80;99.90
41447;DHT22;27185;52.040;4.490;2024-01-10T12:36:07;1.80;99.90
41447;DHT22;27185;52.040;4.490;2024-01-10T12:38:54;1.90;99.90
41447;DHT22;27185;52.040;4.490;2024-01-10T12:41:41;1.90;99.90
41447;DHT22;27185;52.040;4.490;2024-01-10T12:44:30;1.90;99.90
41447;DHT22;27185;52.040;4.490;2024-01-10T12:47:20;2.00;99.90
41447;DHT22;27185;52.040;4.490;2024-01-10T12:50:07;2.00;99.90
41447;DHT22;27185;52.040;4.490;2024-01-10T12:52:58;2.00;99.90
41447;DHT22;27185;52.040;4.490;2024-01-10T12:55:44;2.10;99.90
41447;DHT22;27185;52.040;4.490;2024-01-10T12:58:31;2.20;99.90
41447;DHT22;27185;52.040;4.490;2024-01-10T13:01:16;2.20;99.90
41447;DHT22;27185;52.040;4.490;2024-01-10T13:04:02;2.30;99.90
41447;DHT22;27185;52.040;4.490;2024-01-10T13:06:48;2.30;99.90
41447;DHT22;27185;52.040;4.490;2024-01-10T13:09:33;2.30;99.90
41447;DHT22;27185;52.040;4.490;2024-01-10T13:12:19;2.30;99.90
41447;DHT22;27185;52.040;4.490;2024-01-10T13:15:06;2.40;99.90
41447;DHT22;27185;52.040;4.490;2024-01-10T13:17:52;2.50;99.90
41447;DHT22;27185;52.040;4.490;2024-01-10T13:20:37;2.50;99.90
41447;DHT22;27185;52.040;4.490;2024-01-10T13:23:25;2.50;99.90
41447;DHT22;27185;52.040;4.490;2024-01-10T13:26:11;2.50;99.90
41447;DHT22;27185;52.040;4.490;2024-01-10T13:28:57;2.50;99.70
41447;DHT22;27185;52.040;4.490;2024-01-10T13:31:43;2.60;99.90
41447;DHT22;27185;52.040;4.490;2024-01-10T13:34:34;2.60;99.90
41447;DHT22;27185;52.040;4.490;2024-01-10T13:37:20;2.60;99.90
41447;DHT22;27185;52.040;4.490;2024-01-10T13:40:07;2.60;99.60
41447;DHT22;27185;52.040;4.490;2024-01-10T13:42:54;2.60;99.20
41447;DHT22;27185;52.040;4.490;2024-01-10T13:45:40;2.70;99.70
41447;DHT22;27185;52.040;4.490;2024-01-10T13:48:25;2.90;99.70
41447;DHT22;27185;52.040;4.490;2024-01-10T13:51:11;3.20;99.70
41447;DHT22;27185;52.040;4.490;2024-01-10T13:53:56;3.40;99.50
41447;DHT22;27185;52.040;4.490;2024-01-10T13:56:42;3.70;98.20
41447;DHT22;27185;52.040;4.490;2024-01-10T13:59:28;4.10;98.80
41447;DHT22;27185;52.040;4.490;2024-01-10T14:02:14;4.30;98.20
41447;DHT22;27185;52.040;4.490;2024-01-10T14:04:59;4.60;98.50
41447;DHT22;27185;52.040;4.490;2024-01-10T14:07:46;4.80;98.30
41447;DHT22;27185;52.040;4.490;2024-01-10T14:10:31;5.00;98.20
41447;DHT22;27185;52.040;4.490;2024-01-10T14:13:17;5.10;98.10
41447;DHT22;27185;52.040;4.490;2024-01-10T14:16:06;5.20;97.90
41447;DHT22;27185;52.040;4.490;2024-01-10T14:18:52;5.30;97.60
41447;DHT22;27185;52.040;4.490;2024-01-10T14:21:37;5.40;97.60
41447;DHT22;27185;52.040;4.490;2024-01-10T14:24:23;5.40;97.30
41447;DHT22;27185;52.040;4.490;2024-01-10T14:27:08;5.40;97.20
41447;DHT22;27185;52.040;4.490;2024-01-10T14:29:54;5.40;97.10
41447;DHT22;27185;52.040;4.490;2024-01-10T14:32:41;5.30;97.40
41447;DHT22;27185;52.040;4.490;2024-01-10T14:35:27;5.30;97.10
41447;DHT22;27185;52.040;4.490;2024-01-10T14:38:12;5.20;96.50
41447;DHT22;27185;52.040;4.490;2024-01-10T14:40:58;5.20;96.80
41447;DHT22;27185;52.040;4.490;2024-01-10T14:43:44;5.10;96.60
41447;DHT22;27185;52.040;4.490;2024-01-10T14:46:29;5.10;95.80
41447;DHT22;27185;52.040;4.490;2024-01-10T14:49:15;5.00;96.20
41447;DHT22;27185;52.040;4.490;2024-01-10T14:52:01;5.00;96.00
41447;DHT22;27185;52.040;4.490;2024-01-10T14:54:47;4.90;96.20
41447;DHT22;27185;52.040;4.490;2024-01-10T14:57:33;4.80;96.50
41447;DHT22;27185;52.040;4.490;2024-01-10T15:00:18;4.70;96.30
41447;DHT22;27185;52.040;4.490;2024-01-10T15:03:04;4.60;96.30
41447;DHT22;27185;52.040;4.490;2024-01-10T15:05:52;4.50;96.20
41447;DHT22;27185;52.040;4.490;2024-01-10T15:08:42;4.40;96.40
41447;DHT22;27185;52.040;4.490;2024-01-10T15:11:27;4.30;96.60
41447;DHT22;27185;52.040;4.490;2024-01-10T15:14:13;4.10;96.80
41447;DHT22;27185;52.040;4.490;2024-01-10T15:16:59;4.00;96.80
41447;DHT22;27185;52.040;4.490;2024-01-10T15:19:46;3.90;96.80
41447;DHT22;27185;52.040;4.490;2024-01-10T15:22:31;3.80;97.00
41447;DHT22;27185;52.040;4.490;2024-01-10T15:25:17;3.70;97.10
41447;DHT22;27185;52.040;4.490;2024-01-10T15:28:02;3.60;96.60
41447;DHT22;27185;52.040;4.490;2024-01-10T15:30:48;3.40;96.60
41447;DHT22;27185;52.040;4.490;2024-01-10T15:33:34;3.20;96.90
41447;DHT22;27185;52.040;4.490;2024-01-10T15:36:21;3.00;97.00
41447;DHT22;27185;52.040;4.490;2024-01-10T15:39:06;2.80;97.10
41447;DHT22;27185;52.040;4.490;2024-01-10T15:41:52;2.60;97.60
41447;DHT22;27185;52.040;4.490;2024-01-10T15:44:39;2.40;97.50
41447;DHT22;27185;52.040;4.490;2024-01-10T15:47:27;2.30;97.70
41447;DHT22;27185;52.040;4.490;2024-01-10T15:50:12;2.20;98.00
41447;DHT22;27185;52.040;4.490;2024-01-10T15:52:58;2.10;98.10
41447;DHT22;27185;52.040;4.490;2024-01-10T15:55:44;1.90;98.30
41447;DHT22;27185;52.040;4.490;2024-01-10T15:58:29;1.80;98.80
41447;DHT22;27185;52.040;4.490;2024-01-10T16:04:31;1.70;98.80
41447;DHT22;27185;52.040;4.490;2024-01-10T16:07:17;1.60;99.00
41447;DHT22;27185;52.040;4.490;2024-01-10T16:10:03;1.50;99.20
41447;DHT22;27185;52.040;4.490;2024-01-10T16:12:48;1.40;99.30
41447;DHT22;27185;52.040;4.490;2024-01-10T16:15:35;1.40;99.40
41447;DHT22;27185;52.040;4.490;2024-01-10T16:18:21;1.30;99.40
41447;DHT22;27185;52.040;4.490;2024-01-10T16:21:07;1.30;99.50
41447;DHT22;27185;52.040;4.490;2024-01-10T16:23:52;1.20;99.60
41447;DHT22;27185;52.040;4.490;2024-01-10T16:26:38;1.20;99.70
41447;DHT22;27185;52.040;4.490;2024-01-10T16:29:23;1.10;99.80
41447;DHT22;27185;52.040;4.490;2024-01-10T16:32:09;1.10;99.80
41447;DHT22;27185;52.040;4.490;2024-01-10T16:34:54;1.00;99.90
41447;DHT22;27185;52.040;4.490;2024-01-10T16:37:40;1.00;99.90
41447;DHT22;27185;52.040;4.490;2024-01-10T16:40:26;1.00;99.90
41447;DHT22;27185;52.040;4.490;2024-01-10T16:43:12;0.90;99.90
41447;DHT22;27185;52.040;4.490;2024-01-10T16:45:57;0.80;99.90
41447;DHT22;27185;52.040;4.490;2024-01-10T16:48:43;0.80;99.90
41447;DHT22;27185;52.040;4.490;2024-01-10T16:51:29;0.80;99.90
41447;DHT22;27185;52.040;4.490;2024-01-10T16:54:17;0.70;99.90
41447;DHT22;27185;52.040;4.490;2024-01-10T16:57:03;0.70;99.90
41447;DHT22;27185;52.040;4.490;2024-01-10T16:59:49;0.70;99.90
41447;DHT22;27185;52.040;4.490;2024-01-10T17:02:35;0.60;99.90
41447;DHT22;27185;52.040;4.490;2024-01-10T17:05:21;0.50;99.90
41447;DHT22;27185;52.040;4.490;2024-01-10T17:08:07;0.50;99.90
41447;DHT22;27185;52.040;4.490;2024-01-10T17:10:53;0.50;99.90
41447;DHT22;27185;52.040;4.490;2024-01-10T17:13:39;0.50;99.90
41447;DHT22;27185;52.040;4.490;2024-01-10T17:16:24;0.50;99.90
41447;DHT22;27185;52.040;4.490;2024-01-10T17:19:10;0.40;99.90
41447;DHT22;27185;52.040;4.490;2024-01-10T17:21:55;0.40;99.90
41447;DHT22;27185;52.040;4.490;2024-01-10T17:24:41;0.40;99.90
41447;DHT22;27185;52.040;4.490;2024-01-10T17:27:27;0.40;99.90
41447;DHT22;27185;52.040;4.490;2024-01-10T17:30:13;0.40;99.90
41447;DHT22;27185;52.040;4.490;2024-01-10T17:32:59;0.30;99.90
41447;DHT22;27185;52.040;4.490;2024-01-10T17:35:45;0.30;99.90
41447;DHT22;27185;52.040;4.490;2024-01-10T17:38:30;0.30;99.90
41447;DHT22;27185;52.040;4.490;2024-01-10T17:41:16;0.30;99.90
41447;DHT22;27185;52.040;4.490;2024-01-10T17:44:02;0.30;99.90
41447;DHT22;27185;52.040;4.490;2024-01-10T17:46:48;0.30;99.90
41447;DHT22;27185;52.040;4.490;2024-01-10T17:49:33;0.20;99.90
41447;DHT22;27185;52.040;4.490;2024-01-10T17:52:19;0.20;99.90